Terminal Aerodrome Forecast
Issued by NWS

Home | Current Version | Previous Version | Graphics & Text | Print | Product List | Glossary On
Versions: 1 2 3 4 5 6 7 8 9 10 11 12 13 14 15
000
FTUS43 KLSX 202326
TAFSUS
TAF
KSUS 202326Z 2100/2124 31009KT P6SM SCT050
     FM210600 34005KT P6SM SCT250
     FM211300 01005KT P6SM OVC110
     FM211800 03006KT P6SM VCSH OVC050=

USA.gov is the U.S. government's official web portal to all federal, state and local government web resources and services.